sensor_id;sensor_type;location;lat;lon;timestamp;pressure;altitude;pressure_sealevel;temperature;humidity
46722;BME280;32455;43.430;23.136;2023-02-22T00:00:20;98092.09;;;9.95;51.72
46722;BME280;32455;43.430;23.136;2023-02-22T00:03:32;98095.72;;;9.58;52.72
46722;BME280;32455;43.430;23.136;2023-02-22T00:06:21;98093.19;;;9.63;52.92
46722;BME280;32455;43.430;23.136;2023-02-22T00:09:09;98081.53;;;9.19;53.73
46722;BME280;32455;43.430;23.136;2023-02-22T00:11:54;98089.56;;;9.25;54.21
46722;BME280;32455;43.430;23.136;2023-02-22T00:14:39;98083.97;;;8.89;55.45
46722;BME280;32455;43.430;23.136;2023-02-22T00:17:25;98094.72;;;8.82;55.90
46722;BME280;32455;43.430;23.136;2023-02-22T00:20:12;98086.19;;;8.98;55.19
46722;BME280;32455;43.430;23.136;2023-02-22T00:22:58;98086.81;;;8.49;57.64
46722;BME280;32455;43.430;23.136;2023-02-22T00:25:46;98095.84;;;8.61;57.58
46722;BME280;32455;43.430;23.136;2023-02-22T00:28:32;98085.84;;;8.23;58.82
46722;BME280;32455;43.430;23.136;2023-02-22T00:31:17;98093.06;;;8.10;58.86
46722;BME280;32455;43.430;23.136;2023-02-22T00:34:03;98093.69;;;7.92;60.13
46722;BME280;32455;43.430;23.136;2023-02-22T00:36:49;98083.00;;;7.65;60.57
46722;BME280;32455;43.430;23.136;2023-02-22T00:39:35;98095.56;;;7.78;60.25
46722;BME280;32455;43.430;23.136;2023-02-22T00:42:20;98088.78;;;7.89;60.06
46722;BME280;32455;43.430;23.136;2023-02-22T00:45:05;98084.88;;;7.58;61.35
46722;BME280;32455;43.430;23.136;2023-02-22T00:47:51;98076.84;;;7.78;61.96
46722;BME280;32455;43.430;23.136;2023-02-22T00:50:38;98070.47;;;7.66;61.48
46722;BME280;32455;43.430;23.136;2023-02-22T00:53:24;98069.22;;;7.88;59.94
46722;BME280;32455;43.430;23.136;2023-02-22T00:56:10;98079.13;;;7.41;62.50
46722;BME280;32455;43.430;23.136;2023-02-22T00:58:55;98071.66;;;7.23;63.09
46722;BME280;32455;43.430;23.136;2023-02-22T01:01:41;98084.22;;;7.36;62.87
46722;BME280;32455;43.430;23.136;2023-02-22T01:04:26;98078.25;;;7.27;63.01
46722;BME280;32455;43.430;23.136;2023-02-22T01:07:10;98074.59;;;7.42;63.31
46722;BME280;32455;43.430;23.136;2023-02-22T01:09:56;98067.81;;;7.46;63.22
46722;BME280;32455;43.430;23.136;2023-02-22T01:12:41;98062.66;;;7.38;63.07
46722;BME280;32455;43.430;23.136;2023-02-22T01:15:28;98079.53;;;7.58;62.58
46722;BME280;32455;43.430;23.136;2023-02-22T01:18:14;98070.66;;;7.77;61.23
46722;BME280;32455;43.430;23.136;2023-02-22T01:21:03;98069.22;;;7.88;60.58
46722;BME280;32455;43.430;23.136;2023-02-22T01:23:49;98058.34;;;7.43;61.87
46722;BME280;32455;43.430;23.136;2023-02-22T01:26:34;98056.25;;;7.19;62.95
46722;BME280;32455;43.430;23.136;2023-02-22T01:29:20;98061.38;;;7.14;62.77
46722;BME280;32455;43.430;23.136;2023-02-22T01:32:06;98067.13;;;7.04;64.35
46722;BME280;32455;43.430;23.136;2023-02-22T01:34:55;98069.00;;;7.17;63.19
46722;BME280;32455;43.430;23.136;2023-02-22T01:37:40;98066.16;;;7.25;62.02
46722;BME280;32455;43.430;23.136;2023-02-22T01:40:29;98064.66;;;7.09;62.40
46722;BME280;32455;43.430;23.136;2023-02-22T01:43:24;98057.63;;;6.88;62.98
46722;BME280;32455;43.430;23.136;2023-02-22T01:46:24;98057.44;;;6.83;62.45
46722;BME280;32455;43.430;23.136;2023-02-22T01:49:10;98048.81;;;6.88;61.90
46722;BME280;32455;43.430;23.136;2023-02-22T01:52:00;98054.13;;;6.74;63.30
46722;BME280;32455;43.430;23.136;2023-02-22T01:54:53;98051.47;;;6.81;63.56
46722;BME280;32455;43.430;23.136;2023-02-22T01:57:40;98038.06;;;6.68;63.19
46722;BME280;32455;43.430;23.136;2023-02-22T02:00:25;98030.94;;;6.82;63.26
46722;BME280;32455;43.430;23.136;2023-02-22T02:03:16;98045.13;;;6.95;62.65
46722;BME280;32455;43.430;23.136;2023-02-22T02:06:06;98053.19;;;7.35;61.36
46722;BME280;32455;43.430;23.136;2023-02-22T02:09:02;98044.94;;;7.90;57.31
46722;BME280;32455;43.430;23.136;2023-02-22T02:11:48;98056.84;;;8.00;56.08
46722;BME280;32455;43.430;23.136;2023-02-22T02:14:34;98039.88;;;8.33;53.37
46722;BME280;32455;43.430;23.136;2023-02-22T02:17:24;98046.13;;;8.72;51.60
46722;BME280;32455;43.430;23.136;2023-02-22T02:27:06;98046.44;;;9.77;47.22
46722;BME280;32455;43.430;23.136;2023-02-22T02:30:27;98042.84;;;9.65;47.69
46722;BME280;32455;43.430;23.136;2023-02-22T02:36:13;98039.09;;;9.41;48.50
46722;BME280;32455;43.430;23.136;2023-02-22T02:39:12;98049.44;;;9.62;46.81
46722;BME280;32455;43.430;23.136;2023-02-22T02:42:06;98037.19;;;9.48;47.37
46722;BME280;32455;43.430;23.136;2023-02-22T02:45:05;98043.88;;;9.39;47.20
46722;BME280;32455;43.430;23.136;2023-02-22T02:47:55;98052.91;;;9.44;47.64
46722;BME280;32455;43.430;23.136;2023-02-22T02:50:46;98048.56;;;9.43;47.02
46722;BME280;32455;43.430;23.136;2023-02-22T02:53:36;98055.81;;;9.43;47.80
46722;BME280;32455;43.430;23.136;2023-02-22T02:56:23;98050.31;;;9.31;48.00
46722;BME280;32455;43.430;23.136;2023-02-22T02:59:38;98054.16;;;9.10;48.26
46722;BME280;32455;43.430;23.136;2023-02-22T03:02:43;98048.72;;;8.92;50.15
46722;BME280;32455;43.430;23.136;2023-02-22T03:05:47;98065.00;;;8.45;51.04
46722;BME280;32455;43.430;23.136;2023-02-22T03:08:46;98067.53;;;8.00;52.52
46722;BME280;32455;43.430;23.136;2023-02-22T03:15:18;98073.09;;;7.13;56.56
46722;BME280;32455;43.430;23.136;2023-02-22T03:18:10;98069.63;;;7.12;57.04
46722;BME280;32455;43.430;23.136;2023-02-22T03:24:26;98065.47;;;6.96;58.32
46722;BME280;32455;43.430;23.136;2023-02-22T03:27:41;98072.59;;;6.69;59.76
46722;BME280;32455;43.430;23.136;2023-02-22T03:33:35;98078.47;;;6.10;63.15
46722;BME280;32455;43.430;23.136;2023-02-22T03:36:25;98081.34;;;6.15;64.08
46722;BME280;32455;43.430;23.136;2023-02-22T03:39:15;98089.75;;;6.12;64.17
46722;BME280;32455;43.430;23.136;2023-02-22T03:42:08;98087.94;;;6.19;64.59
46722;BME280;32455;43.430;23.136;2023-02-22T03:44:57;98084.97;;;6.01;64.79
46722;BME280;32455;43.430;23.136;2023-02-22T03:47:52;98098.34;;;5.80;66.52
46722;BME280;32455;43.430;23.136;2023-02-22T03:50:42;98104.28;;;5.82;66.31
46722;BME280;32455;43.430;23.136;2023-02-22T03:53:28;98087.16;;;5.41;68.23
46722;BME280;32455;43.430;23.136;2023-02-22T03:56:19;98103.97;;;5.42;68.57
46722;BME280;32455;43.430;23.136;2023-02-22T03:59:09;98099.16;;;5.31;69.95
46722;BME280;32455;43.430;23.136;2023-02-22T04:01:55;98105.56;;;5.36;69.85
46722;BME280;32455;43.430;23.136;2023-02-22T04:04:41;98092.75;;;5.25;69.86
46722;BME280;32455;43.430;23.136;2023-02-22T04:07:26;98092.41;;;5.13;71.19
46722;BME280;32455;43.430;23.136;2023-02-22T04:10:15;98100.22;;;4.93;72.33
46722;BME280;32455;43.430;23.136;2023-02-22T04:12:59;98092.75;;;5.03;72.22
46722;BME280;32455;43.430;23.136;2023-02-22T04:15:44;98082.84;;;4.97;72.39
46722;BME280;32455;43.430;23.136;2023-02-22T04:18:30;98082.72;;;4.84;73.23
46722;BME280;32455;43.430;23.136;2023-02-22T04:21:15;98105.50;;;4.72;74.54
46722;BME280;32455;43.430;23.136;2023-02-22T04:24:00;98108.06;;;4.80;74.33
46722;BME280;32455;43.430;23.136;2023-02-22T04:26:46;98095.13;;;4.77;74.59
46722;BME280;32455;43.430;23.136;2023-02-22T04:29:32;98097.16;;;4.96;73.24
46722;BME280;32455;43.430;23.136;2023-02-22T04:32:17;98101.47;;;4.76;75.72
46722;BME280;32455;43.430;23.136;2023-02-22T04:35:04;98101.47;;;4.76;76.14
46722;BME280;32455;43.430;23.136;2023-02-22T04:37:49;98110.69;;;4.59;77.16
46722;BME280;32455;43.430;23.136;2023-02-22T04:40:35;98104.56;;;4.80;76.83
46722;BME280;32455;43.430;23.136;2023-02-22T04:43:20;98099.88;;;4.82;77.09
46722;BME280;32455;43.430;23.136;2023-02-22T04:46:06;98107.31;;;4.86;77.36
46722;BME280;32455;43.430;23.136;2023-02-22T04:48:53;98100.38;;;4.92;77.25
46722;BME280;32455;43.430;23.136;2023-02-22T04:51:38;98099.22;;;4.80;78.89
46722;BME280;32455;43.430;23.136;2023-02-22T04:54:23;98103.25;;;4.90;78.13
46722;BME280;32455;43.430;23.136;2023-02-22T04:57:07;98102.38;;;5.26;76.21
46722;BME280;32455;43.430;23.136;2023-02-22T04:59:52;98093.06;;;5.15;76.30
46722;BME280;32455;43.430;23.136;2023-02-22T05:02:38;98096.44;;;5.24;76.60
46722;BME280;32455;43.430;23.136;2023-02-22T05:05:24;98106.44;;;5.22;76.84
46722;BME280;32455;43.430;23.136;2023-02-22T05:08:09;98101.56;;;5.25;76.55
46722;BME280;32455;43.430;23.136;2023-02-22T05:10:55;98105.16;;;5.39;76.08
46722;BME280;32455;43.430;23.136;2023-02-22T05:13:40;98092.63;;;5.33;76.26
46722;BME280;32455;43.430;23.136;2023-02-22T05:16:26;98088.31;;;5.32;76.21
46722;BME280;32455;43.430;23.136;2023-02-22T05:19:11;98098.19;;;5.38;76.45
46722;BME280;32455;43.430;23.136;2023-02-22T05:21:57;98106.63;;;5.42;76.32
46722;BME280;32455;43.430;23.136;2023-02-22T05:24:42;98108.16;;;5.51;77.03
46722;BME280;32455;43.430;23.136;2023-02-22T05:27:28;98105.00;;;5.69;76.64
46722;BME280;32455;43.430;23.136;2023-02-22T05:30:14;98119.69;;;6.08;74.94
46722;BME280;32455;43.430;23.136;2023-02-22T05:33:00;98120.41;;;5.95;75.68
46722;BME280;32455;43.430;23.136;2023-02-22T05:35:46;98116.94;;;5.94;76.64
46722;BME280;32455;43.430;23.136;2023-02-22T05:38:32;98119.22;;;6.32;75.48
46722;BME280;32455;43.430;23.136;2023-02-22T05:41:18;98120.00;;;6.61;74.03
46722;BME280;32455;43.430;23.136;2023-02-22T05:44:04;98119.41;;;6.72;72.81
46722;BME280;32455;43.430;23.136;2023-02-22T05:46:49;98119.97;;;7.09;72.02
46722;BME280;32455;43.430;23.136;2023-02-22T05:49:35;98125.47;;;7.00;72.93
46722;BME280;32455;43.430;23.136;2023-02-22T05:52:20;98128.25;;;7.34;72.30
46722;BME280;32455;43.430;23.136;2023-02-22T05:55:07;98134.03;;;7.64;70.54
46722;BME280;32455;43.430;23.136;2023-02-22T05:57:53;98142.91;;;7.84;69.60
46722;BME280;32455;43.430;23.136;2023-02-22T06:00:38;98142.88;;;8.04;70.26
46722;BME280;32455;43.430;23.136;2023-02-22T06:03:24;98149.41;;;8.35;68.40
46722;BME280;32455;43.430;23.136;2023-02-22T06:06:09;98155.41;;;8.43;68.25
46722;BME280;32455;43.430;23.136;2023-02-22T06:08:55;98162.13;;;9.24;65.38
46722;BME280;32455;43.430;23.136;2023-02-22T06:11:40;98156.78;;;9.24;65.00
46722;BME280;32455;43.430;23.136;2023-02-22T06:14:26;98157.25;;;9.46;64.33
46722;BME280;32455;43.430;23.136;2023-02-22T06:17:13;98159.25;;;9.57;64.18
46722;BME280;32455;43.430;23.136;2023-02-22T06:19:59;98163.66;;;10.33;61.08
46722;BME280;32455;43.430;23.136;2023-02-22T06:22:47;98164.38;;;10.84;59.51
46722;BME280;32455;43.430;23.136;2023-02-22T06:25:33;98177.78;;;10.65;59.87
46722;BME280;32455;43.430;23.136;2023-02-22T06:28:18;98169.34;;;11.47;56.53
46722;BME280;32455;43.430;23.136;2023-02-22T06:31:04;98167.50;;;11.59;56.32
46722;BME280;32455;43.430;23.136;2023-02-22T06:33:49;98172.13;;;11.70;55.51
46722;BME280;32455;43.430;23.136;2023-02-22T06:36:34;98168.56;;;11.58;56.34
46722;BME280;32455;43.430;23.136;2023-02-22T06:39:18;98182.84;;;11.89;55.26
46722;BME280;32455;43.430;23.136;2023-02-22T06:42:04;98186.50;;;12.06;54.64
46722;BME280;32455;43.430;23.136;2023-02-22T06:44:50;98186.19;;;12.14;54.09
46722;BME280;32455;43.430;23.136;2023-02-22T06:47:39;98193.22;;;12.39;53.77
46722;BME280;32455;43.430;23.136;2023-02-22T06:50:29;98200.03;;;12.53;53.04
46722;BME280;32455;43.430;23.136;2023-02-22T06:53:14;98193.47;;;12.61;52.75
46722;BME280;32455;43.430;23.136;2023-02-22T06:56:00;98189.13;;;12.60;52.81
46722;BME280;32455;43.430;23.136;2023-02-22T06:58:46;98197.66;;;12.92;51.14
46722;BME280;32455;43.430;23.136;2023-02-22T07:01:33;98203.28;;;12.90;51.60
46722;BME280;32455;43.430;23.136;2023-02-22T07:04:19;98189.84;;;13.19;50.64
46722;BME280;32455;43.430;23.136;2023-02-22T07:07:05;98198.03;;;13.36;49.97
46722;BME280;32455;43.430;23.136;2023-02-22T07:09:50;98186.78;;;13.39;50.54
46722;BME280;32455;43.430;23.136;2023-02-22T07:12:35;98201.22;;;13.61;50.10
46722;BME280;32455;43.430;23.136;2023-02-22T07:15:22;98190.78;;;13.65;50.28
46722;BME280;32455;43.430;23.136;2023-02-22T07:18:09;98189.66;;;13.77;49.98
46722;BME280;32455;43.430;23.136;2023-02-22T07:20:56;98184.97;;;13.73;49.51
46722;BME280;32455;43.430;23.136;2023-02-22T07:23:50;98196.88;;;13.89;49.20
46722;BME280;32455;43.430;23.136;2023-02-22T07:26:40;98197.69;;;13.89;49.20
46722;BME280;32455;43.430;23.136;2023-02-22T07:29:26;98194.00;;;13.95;49.38
46722;BME280;32455;43.430;23.136;2023-02-22T07:32:12;98190.28;;;14.13;48.91
46722;BME280;32455;43.430;23.136;2023-02-22T07:34:57;98182.47;;;14.17;48.65
46722;BME280;32455;43.430;23.136;2023-02-22T07:37:43;98201.00;;;14.25;47.83
46722;BME280;32455;43.430;23.136;2023-02-22T07:40:28;98185.53;;;14.37;48.28
46722;BME280;32455;43.430;23.136;2023-02-22T07:46:01;98173.84;;;14.48;47.97
46722;BME280;32455;43.430;23.136;2023-02-22T07:48:46;98174.66;;;14.49;47.48
46722;BME280;32455;43.430;23.136;2023-02-22T07:51:32;98184.03;;;14.63;48.09
46722;BME280;32455;43.430;23.136;2023-02-22T07:54:17;98181.34;;;14.63;47.29
46722;BME280;32455;43.430;23.136;2023-02-22T07:57:02;98183.63;;;14.71;47.12
46722;BME280;32455;43.430;23.136;2023-02-22T07:59:47;98177.38;;;14.88;46.60
46722;BME280;32455;43.430;23.136;2023-02-22T08:02:33;98175.47;;;14.88;45.67
46722;BME280;32455;43.430;23.136;2023-02-22T08:05:22;98171.63;;;14.84;46.31
46722;BME280;32455;43.430;23.136;2023-02-22T08:08:08;98172.41;;;15.01;45.97
46722;BME280;32455;43.430;23.136;2023-02-22T08:10:54;98175.47;;;15.10;46.29
46722;BME280;32455;43.430;23.136;2023-02-22T08:13:40;98175.72;;;15.31;45.89
46722;BME280;32455;43.430;23.136;2023-02-22T08:16:25;98188.06;;;14.99;45.39
46722;BME280;32455;43.430;23.136;2023-02-22T08:19:10;98185.47;;;15.32;45.04
46722;BME280;32455;43.430;23.136;2023-02-22T08:21:56;98171.78;;;15.38;45.21
46722;BME280;32455;43.430;23.136;2023-02-22T08:24:42;98177.94;;;15.34;45.32
46722;BME280;32455;43.430;23.136;2023-02-22T08:27:29;98167.75;;;15.46;44.87
46722;BME280;32455;43.430;23.136;2023-02-22T08:30:21;98172.94;;;15.47;44.03
46722;BME280;32455;43.430;23.136;2023-02-22T08:33:07;98175.25;;;15.61;45.06
46722;BME280;32455;43.430;23.136;2023-02-22T08:35:53;98161.16;;;15.37;44.40
46722;BME280;32455;43.430;23.136;2023-02-22T08:38:38;98168.34;;;15.48;44.75
46722;BME280;32455;43.430;23.136;2023-02-22T08:41:23;98158.78;;;15.40;44.51
46722;BME280;32455;43.430;23.136;2023-02-22T08:44:08;98162.56;;;15.39;44.25
46722;BME280;32455;43.430;23.136;2023-02-22T08:46:53;98155.22;;;15.62;43.91
46722;BME280;32455;43.430;23.136;2023-02-22T08:49:39;98158.72;;;15.62;43.27
46722;BME280;32455;43.430;23.136;2023-02-22T08:52:26;98152.13;;;15.75;43.79
46722;BME280;32455;43.430;23.136;2023-02-22T08:55:11;98142.59;;;15.67;43.67
46722;BME280;32455;43.430;23.136;2023-02-22T08:57:58;98153.09;;;15.64;43.03
46722;BME280;32455;43.430;23.136;2023-02-22T09:00:45;98147.28;;;15.77;42.81
46722;BME280;32455;43.430;23.136;2023-02-22T09:03:31;98150.72;;;15.99;43.72
46722;BME280;32455;43.430;23.136;2023-02-22T09:06:17;98149.28;;;16.19;42.96
46722;BME280;32455;43.430;23.136;2023-02-22T09:09:02;98139.69;;;16.06;42.83
46722;BME280;32455;43.430;23.136;2023-02-22T09:11:48;98152.63;;;15.99;43.23
46722;BME280;32455;43.430;23.136;2023-02-22T09:14:33;98142.88;;;15.98;43.61
46722;BME280;32455;43.430;23.136;2023-02-22T09:17:19;98133.47;;;15.78;44.17
46722;BME280;32455;43.430;23.136;2023-02-22T09:20:06;98130.63;;;15.95;44.47
46722;BME280;32455;43.430;23.136;2023-02-22T09:22:52;98137.72;;;16.39;43.35
46722;BME280;32455;43.430;23.136;2023-02-22T09:25:39;98131.78;;;16.37;43.35
46722;BME280;32455;43.430;23.136;2023-02-22T09:28:26;98137.72;;;16.39;43.21
46722;BME280;32455;43.430;23.136;2023-02-22T09:31:11;98134.53;;;16.47;42.61
46722;BME280;32455;43.430;23.136;2023-02-22T09:33:56;98134.66;;;16.25;43.13
46722;BME280;32455;43.430;23.136;2023-02-22T09:36:42;98130.16;;;16.41;42.66
46722;BME280;32455;43.430;23.136;2023-02-22T09:39:28;98138.25;;;16.36;42.53
46722;BME280;32455;43.430;23.136;2023-02-22T09:42:34;98134.25;;;16.48;42.00
46722;BME280;32455;43.430;23.136;2023-02-22T09:45:31;98135.59;;;16.41;43.58
46722;BME280;32455;43.430;23.136;2023-02-22T09:48:21;98130.97;;;16.36;42.82
46722;BME280;32455;43.430;23.136;2023-02-22T09:51:13;98128.94;;;16.21;42.04
46722;BME280;32455;43.430;23.136;2023-02-22T09:54:02;98130.69;;;16.38;42.51
46722;BME280;32455;43.430;23.136;2023-02-22T09:56:52;98121.88;;;16.58;43.03
46722;BME280;32455;43.430;23.136;2023-02-22T09:59:43;98123.81;;;16.67;43.11
46722;BME280;32455;43.430;23.136;2023-02-22T10:02:36;98110.78;;;16.69;43.27
46722;BME280;32455;43.430;23.136;2023-02-22T10:05:26;98114.44;;;16.85;41.54
46722;BME280;32455;43.430;23.136;2023-02-22T10:08:16;98120.34;;;16.77;42.40
46722;BME280;32455;43.430;23.136;2023-02-22T10:17:26;98100.88;;;16.90;42.63
46722;BME280;32455;43.430;23.136;2023-02-22T10:26:19;98088.91;;;16.81;42.62
46722;BME280;32455;43.430;23.136;2023-02-22T10:29:38;98077.06;;;17.08;41.63
46722;BME280;32455;43.430;23.136;2023-02-22T10:32:46;98091.13;;;16.94;41.96
46722;BME280;32455;43.430;23.136;2023-02-22T10:35:35;98077.84;;;16.98;42.16
46722;BME280;32455;43.430;23.136;2023-02-22T10:38:29;98076.75;;;16.99;42.15
46722;BME280;32455;43.430;23.136;2023-02-22T10:41:36;98060.22;;;17.11;42.17
46722;BME280;32455;43.430;23.136;2023-02-22T10:44:25;98061.53;;;16.88;42.23
46722;BME280;32455;43.430;23.136;2023-02-22T10:47:13;98062.09;;;17.00;42.03
46722;BME280;32455;43.430;23.136;2023-02-22T10:49:59;98053.44;;;17.08;42.06
46722;BME280;32455;43.430;23.136;2023-02-22T10:52:45;98056.72;;;17.25;41.70
46722;BME280;32455;43.430;23.136;2023-02-22T10:55:31;98046.88;;;16.89;41.63
46722;BME280;32455;43.430;23.136;2023-02-22T10:58:17;98054.50;;;16.97;41.98
46722;BME280;32455;43.430;23.136;2023-02-22T11:01:25;98045.34;;;17.23;42.16
46722;BME280;32455;43.430;23.136;2023-02-22T11:04:17;98041.97;;;16.91;42.02
46722;BME280;32455;43.430;23.136;2023-02-22T11:07:33;98044.47;;;17.08;42.50
46722;BME280;32455;43.430;23.136;2023-02-22T11:10:30;98038.22;;;17.07;42.44
46722;BME280;32455;43.430;23.136;2023-02-22T11:13:24;98035.25;;;17.09;42.14
46722;BME280;32455;43.430;23.136;2023-02-22T11:16:18;98035.78;;;17.06;41.78
46722;BME280;32455;43.430;23.136;2023-02-22T11:19:26;98026.31;;;17.18;42.00
46722;BME280;32455;43.430;23.136;2023-02-22T11:22:19;98022.75;;;17.13;42.18
46722;BME280;32455;43.430;23.136;2023-02-22T11:25:19;98030.97;;;17.59;41.85
46722;BME280;32455;43.430;23.136;2023-02-22T11:31:28;98010.31;;;17.22;42.68
46722;BME280;32455;43.430;23.136;2023-02-22T11:34:37;98013.31;;;17.31;41.61
46722;BME280;32455;43.430;23.136;2023-02-22T11:37:47;98009.75;;;17.20;41.78
46722;BME280;32455;43.430;23.136;2023-02-22T11:40:33;98006.78;;;17.32;41.77
46722;BME280;32455;43.430;23.136;2023-02-22T11:43:50;98007.03;;;17.25;41.60
46722;BME280;32455;43.430;23.136;2023-02-22T11:47:08;98007.63;;;17.47;41.73
46722;BME280;32455;43.430;23.136;2023-02-22T11:49:55;98000.25;;;17.22;41.80
46722;BME280;32455;43.430;23.136;2023-02-22T11:52:44;97999.72;;;17.41;41.36
46722;BME280;32455;43.430;23.136;2023-02-22T11:55:49;97994.28;;;17.46;41.40
46722;BME280;32455;43.430;23.136;2023-02-22T11:58:50;97980.69;;;17.20;41.14
46722;BME280;32455;43.430;23.136;2023-02-22T12:20:28;97971.19;;;17.69;40.75
46722;BME280;32455;43.430;23.136;2023-02-22T12:23:22;97974.72;;;17.59;41.44
46722;BME280;32455;43.430;23.136;2023-02-22T12:35:25;97959.25;;;17.55;40.88
46722;BME280;32455;43.430;23.136;2023-02-22T12:38:27;97946.47;;;17.50;40.85
46722;BME280;32455;43.430;23.136;2023-02-22T12:41:44;97950.53;;;17.73;40.17
46722;BME280;32455;43.430;23.136;2023-02-22T12:44:38;97946.19;;;17.67;40.42
46722;BME280;32455;43.430;23.136;2023-02-22T12:47:31;97946.47;;;17.81;40.80
46722;BME280;32455;43.430;23.136;2023-02-22T12:50:23;97947.84;;;17.52;40.40
46722;BME280;32455;43.430;23.136;2023-02-22T12:53:20;97937.50;;;17.55;40.70
46722;BME280;32455;43.430;23.136;2023-02-22T13:02:28;97940.50;;;17.58;40.84
46722;BME280;32455;43.430;23.136;2023-02-22T13:05:18;97942.13;;;17.80;40.45
46722;BME280;32455;43.430;23.136;2023-02-22T13:14:46;97940.75;;;17.62;40.66
46722;BME280;32455;43.430;23.136;2023-02-22T13:17:40;97942.16;;;17.44;41.43
46722;BME280;32455;43.430;23.136;2023-02-22T13:20:36;97928.56;;;17.44;41.02
46722;BME280;32455;43.430;23.136;2023-02-22T13:23:31;97942.41;;;17.52;40.91
46722;BME280;32455;43.430;23.136;2023-02-22T13:29:19;97934.53;;;17.46;40.27
46722;BME280;32455;43.430;23.136;2023-02-22T13:39:02;97938.59;;;17.69;40.71
46722;BME280;32455;43.430;23.136;2023-02-22T13:48:07;97946.19;;;17.67;40.50
46722;BME280;32455;43.430;23.136;2023-02-22T13:54:07;97941.59;;;17.52;40.29
46722;BME280;32455;43.430;23.136;2023-02-22T13:56:56;97935.09;;;17.48;40.06
46722;BME280;32455;43.430;23.136;2023-02-22T13:59:42;97937.81;;;17.48;40.21
46722;BME280;32455;43.430;23.136;2023-02-22T14:03:08;97936.97;;;17.52;40.19
46722;BME280;32455;43.430;23.136;2023-02-22T14:06:36;97936.13;;;17.72;40.11
46722;BME280;32455;43.430;23.136;2023-02-22T14:09:48;97929.63;;;17.63;40.24
46722;BME280;32455;43.430;23.136;2023-02-22T14:12:46;97934.53;;;17.46;40.28
46722;BME280;32455;43.430;23.136;2023-02-22T14:15:32;97936.44;;;17.40;40.76
46722;BME280;32455;43.430;23.136;2023-02-22T14:18:18;97930.19;;;17.40;40.36
46722;BME280;32455;43.430;23.136;2023-02-22T14:21:19;97944.00;;;17.64;39.65
46722;BME280;32455;43.430;23.136;2023-02-22T14:24:11;97931.25;;;17.54;40.07
46722;BME280;32455;43.430;23.136;2023-02-22T14:27:02;97925.31;;;17.32;40.08
46722;BME280;32455;43.430;23.136;2023-02-22T14:29:55;97939.97;;;17.41;40.30
46722;BME280;32455;43.430;23.136;2023-02-22T14:32:41;97937.81;;;17.27;40.47
46722;BME280;32455;43.430;23.136;2023-02-22T14:35:35;97929.63;;;17.07;41.21
46722;BME280;32455;43.430;23.136;2023-02-22T14:38:22;97933.97;;;17.34;40.19
46722;BME280;32455;43.430;23.136;2023-02-22T14:41:10;97937.53;;;17.39;40.33
46722;BME280;32455;43.430;23.136;2023-02-22T14:43:57;97932.38;;;17.17;40.76
46722;BME280;32455;43.430;23.136;2023-02-22T14:46:46;97928.53;;;17.08;40.76
46722;BME280;32455;43.430;23.136;2023-02-22T14:49:40;97939.41;;;17.08;40.76
46722;BME280;32455;43.430;23.136;2023-02-22T14:52:28;97931.22;;;16.72;41.09
46722;BME280;32455;43.430;23.136;2023-02-22T14:55:24;97943.19;;;16.82;41.58
46722;BME280;32455;43.430;23.136;2023-02-22T14:58:20;97940.75;;;16.95;41.14
46722;BME280;32455;43.430;23.136;2023-02-22T15:01:37;97939.66;;;16.91;41.09
46722;BME280;32455;43.430;23.136;2023-02-22T15:04:28;97930.38;;;16.72;42.16
46722;BME280;32455;43.430;23.136;2023-02-22T15:07:24;97938.53;;;16.72;41.80
46722;BME280;32455;43.430;23.136;2023-02-22T15:13:04;97933.56;;;16.48;42.22
46722;BME280;32455;43.430;23.136;2023-02-22T15:16:02;97930.84;;;16.43;42.62
46722;BME280;32455;43.430;23.136;2023-02-22T15:18:57;97938.22;;;16.53;42.50
46722;BME280;32455;43.430;23.136;2023-02-22T15:21:46;97929.09;;;17.05;41.69
46722;BME280;32455;43.430;23.136;2023-02-22T15:24:35;97925.31;;;17.52;40.08
46722;BME280;32455;43.430;23.136;2023-02-22T15:27:21;97948.94;;;17.51;40.39
46722;BME280;32455;43.430;23.136;2023-02-22T15:30:15;97943.38;;;16.70;42.09
46722;BME280;32455;43.430;23.136;2023-02-22T15:33:17;97944.56;;;16.11;43.09
46722;BME280;32455;43.430;23.136;2023-02-22T15:36:14;97947.34;;;15.79;44.37
46722;BME280;32455;43.430;23.136;2023-02-22T15:39:02;97941.63;;;15.75;44.64
46722;BME280;32455;43.430;23.136;2023-02-22T15:42:11;97943.19;;;15.66;44.74
46722;BME280;32455;43.430;23.136;2023-02-22T15:45:04;97944.66;;;15.47;45.66
46722;BME280;32455;43.430;23.136;2023-02-22T15:47:51;97942.66;;;15.00;47.41
46722;BME280;32455;43.430;23.136;2023-02-22T15:50:38;97948.97;;;14.35;50.09
46722;BME280;32455;43.430;23.136;2023-02-22T15:53:26;97946.78;;;13.71;52.00
46722;BME280;32455;43.430;23.136;2023-02-22T15:56:25;97951.44;;;13.08;54.23
46722;BME280;32455;43.430;23.136;2023-02-22T15:59:16;97950.63;;;12.62;56.16
46722;BME280;32455;43.430;23.136;2023-02-22T16:02:02;97938.06;;;12.85;55.50
46722;BME280;32455;43.430;23.136;2023-02-22T16:04:47;97944.13;;;12.46;56.21
46722;BME280;32455;43.430;23.136;2023-02-22T16:07:37;97954.50;;;12.26;56.83
46722;BME280;32455;43.430;23.136;2023-02-22T16:10:29;97960.63;;;12.10;58.21
46722;BME280;32455;43.430;23.136;2023-02-22T16:13:23;97962.75;;;11.72;59.47
46722;BME280;32455;43.430;23.136;2023-02-22T16:19:31;97968.97;;;11.61;60.10
46722;BME280;32455;43.430;23.136;2023-02-22T16:22:33;97967.47;;;11.00;61.63
46722;BME280;32455;43.430;23.136;2023-02-22T16:28:32;97974.66;;;11.18;61.49
46722;BME280;32455;43.430;23.136;2023-02-22T16:31:21;97973.19;;;10.62;62.75
46722;BME280;32455;43.430;23.136;2023-02-22T16:34:09;97984.56;;;11.06;61.54
46722;BME280;32455;43.430;23.136;2023-02-22T16:36:55;97989.66;;;10.84;63.02
46722;BME280;32455;43.430;23.136;2023-02-22T16:39:40;97997.34;;;10.50;63.70
46722;BME280;32455;43.430;23.136;2023-02-22T16:42:26;97991.00;;;10.44;63.76